Time;durP1;ratioP1;P1;durP2;ratioP2;P2;SDS_P1;SDS_P2;PMS_P1;PMS_P2;Temp;Humidity;BMP_temperature;BMP_pressure;BME280_temperature;BME280_humidity;BME280_pressure;Samples;Min_cycle;Max_cycle;Signal;HPM_P1;HPM_P2
2023/08/16 00:01:23;;;;;;;1.73;1.30;;;28.10;56.90;;;;;;5078702;28;20110;-63
2023/08/16 00:03:49;;;;;;;1.48;1.20;;;28.10;56.90;;;;;;5080385;28;20538;-64
2023/08/16 00:06:14;;;;;;;2.05;1.30;;;28.00;56.80;;;;;;5081037;28;20101;-63
2023/08/16 00:08:41;;;;;;;1.95;1.20;;;28.00;56.80;;;;;;5077989;28;20073;-65
2023/08/16 00:11:07;;;;;;;1.60;1.40;;;28.00;56.80;;;;;;5081202;28;20119;-63
2023/08/16 00:13:34;;;;;;;1.60;1.23;;;28.00;56.80;;;;;;5079025;28;20050;-63
2023/08/16 00:16:00;;;;;;;1.63;1.20;;;28.00;56.80;;;;;;5080402;28;20020;-63
2023/08/16 00:18:27;;;;;;;1.42;1.10;;;28.00;56.90;;;;;;5080919;28;20024;-63
2023/08/16 00:20:53;;;;;;;1.48;1.10;;;28.00;56.90;;;;;;5081008;28;20452;-63
2023/08/16 00:23:19;;;;;;;1.55;1.10;;;28.00;56.80;;;;;;5079837;28;20035;-64
2023/08/16 00:25:44;;;;;;;2.03;1.30;;;28.00;56.90;;;;;;5081020;28;20032;-63
2023/08/16 00:28:10;;;;;;;1.55;1.20;;;28.00;56.90;;;;;;5080902;28;20244;-63
2023/08/16 00:30:35;;;;;;;1.75;1.30;;;28.00;56.80;;;;;;5081685;28;20043;-63
2023/08/16 00:33:01;;;;;;;1.45;1.10;;;28.00;56.80;;;;;;5080736;28;20080;-64
2023/08/16 00:35:27;;;;;;;1.67;1.30;;;28.00;56.80;;;;;;5082181;28;20471;-63
2023/08/16 00:37:52;;;;;;;1.50;1.30;;;28.00;56.90;;;;;;5079025;28;20531;-64
2023/08/16 00:40:19;;;;;;;1.95;1.40;;;28.00;56.80;;;;;;5079788;28;20044;-64
2023/08/16 00:42:45;;;;;;;1.65;1.25;;;28.00;56.80;;;;;;5083424;28;20389;-63
2023/08/16 00:45:11;;;;;;;1.80;1.40;;;28.00;56.80;;;;;;5081670;28;20038;-62
2023/08/16 00:47:37;;;;;;;1.73;1.20;;;28.00;56.80;;;;;;5081399;28;20028;-60
2023/08/16 00:50:03;;;;;;;1.48;1.17;;;28.00;56.80;;;;;;5079418;28;20024;-61
2023/08/16 00:52:29;;;;;;;1.60;1.30;;;28.00;56.80;;;;;;5079511;28;20036;-63
2023/08/16 00:54:55;;;;;;;1.70;1.20;;;28.00;56.80;;;;;;5080242;28;20031;-61
2023/08/16 00:57:21;;;;;;;1.95;1.38;;;28.00;56.80;;;;;;5079619;28;20033;-61
2023/08/16 00:59:47;;;;;;;1.52;1.25;;;28.00;56.80;;;;;;5079532;28;20555;-63
2023/08/16 01:02:14;;;;;;;1.80;1.27;;;28.00;56.80;;;;;;5080487;28;20094;-61
2023/08/16 01:04:42;;;;;;;1.80;1.23;;;28.00;56.80;;;;;;5079371;28;20469;-61
2023/08/16 01:07:08;;;;;;;2.00;1.40;;;28.00;56.80;;;;;;5078325;28;20383;-63
2023/08/16 01:09:34;;;;;;;1.80;1.20;;;28.00;56.80;;;;;;5079800;28;20024;-61
2023/08/16 01:12:12;;;;;;;1.70;1.35;;;28.00;56.80;;;;;;5081841;28;20030;-62
2023/08/16 01:14:56;;;;;;;1.90;1.30;;;28.00;56.80;;;;;;5079575;28;20185;-61
2023/08/16 01:17:24;;;;;;;1.88;1.30;;;28.00;56.80;;;;;;5079940;28;20067;-62
2023/08/16 01:19:53;;;;;;;1.95;1.30;;;28.00;56.80;;;;;;5081175;28;20031;-62
2023/08/16 01:22:47;;;;;;;1.50;1.05;;;28.00;56.80;;;;;;5078977;28;20391;-61
2023/08/16 01:25:18;;;;;;;1.98;1.30;;;28.00;56.80;;;;;;5044181;28;20036;-61
2023/08/16 01:27:44;;;;;;;1.55;1.30;;;28.00;56.80;;;;;;5080259;28;20422;-61
2023/08/16 01:30:10;;;;;;;1.75;1.40;;;28.00;56.80;;;;;;5078392;28;20093;-63
2023/08/16 01:32:40;;;;;;;1.63;1.20;;;28.00;56.80;;;;;;5079028;28;20463;-62
2023/08/16 01:35:05;;;;;;;;;;;28.00;56.80;;;;;;5080191;28;20020;-61
2023/08/16 01:37:31;;;;;;;1.30;1.20;;;27.90;56.70;;;;;;5077920;28;19916;-62
2023/08/16 01:40:01;;;;;;;1.63;1.13;;;28.00;56.80;;;;;;5079773;28;20388;-64
2023/08/16 01:42:29;;;;;;;1.85;1.30;;;28.00;56.80;;;;;;5079303;28;20387;-61
2023/08/16 01:44:59;;;;;;;1.52;1.30;;;28.00;56.80;;;;;;5081743;28;20027;-70
2023/08/16 01:47:26;;;;;;;1.50;1.30;;;28.00;56.80;;;;;;5063696;28;20176;-70
2023/08/16 01:49:52;;;;;;;1.60;1.20;;;28.00;56.80;;;;;;5081317;28;20048;-71
2023/08/16 01:52:18;;;;;;;1.90;1.30;;;28.00;56.80;;;;;;5078155;28;20079;-70
2023/08/16 01:54:44;;;;;;;1.88;1.20;;;27.90;56.70;;;;;;5078742;28;20063;-70
2023/08/16 01:57:09;;;;;;;2.00;1.20;;;28.00;56.80;;;;;;5077619;28;20035;-71
2023/08/16 01:59:35;;;;;;;1.83;1.40;;;28.00;56.80;;;;;;5077951;28;20103;-69
2023/08/16 02:02:00;;;;;;;1.30;1.10;;;27.90;56.70;;;;;;5078212;28;20036;-70
2023/08/16 02:04:26;;;;;;;1.77;1.20;;;28.00;56.70;;;;;;5079012;28;20025;-70
2023/08/16 02:06:52;;;;;;;1.67;1.40;;;28.00;56.70;;;;;;5079164;28;20111;-70
2023/08/16 02:09:19;;;;;;;2.00;1.33;;;28.00;56.80;;;;;;5075784;28;20103;-70
2023/08/16 02:11:44;;;;;;;1.95;1.55;;;28.00;56.80;;;;;;5078235;28;20074;-71
2023/08/16 02:14:10;;;;;;;1.80;1.30;;;28.00;56.80;;;;;;5078365;28;20078;-69
2023/08/16 02:16:36;;;;;;;1.60;1.30;;;27.90;56.70;;;;;;5078694;28;20017;-63
2023/08/16 02:19:01;;;;;;;1.90;1.40;;;28.00;56.80;;;;;;5077048;28;20043;-63
2023/08/16 02:21:27;;;;;;;1.70;1.20;;;27.90;56.70;;;;;;5079043;28;20427;-63
2023/08/16 02:23:52;;;;;;;1.65;1.20;;;27.90;56.70;;;;;;5079549;28;20388;-63
2023/08/16 02:26:18;;;;;;;1.60;1.20;;;28.00;56.70;;;;;;5076375;28;20143;-64
2023/08/16 02:28:44;;;;;;;1.30;1.02;;;27.90;56.60;;;;;;5076752;28;20020;-64
2023/08/16 02:31:09;;;;;;;2.00;1.38;;;28.00;56.70;;;;;;5079074;28;20028;-63
2023/08/16 02:33:35;;;;;;;1.83;1.30;;;28.00;56.70;;;;;;5078286;28;20170;-63
2023/08/16 02:36:01;;;;;;;1.58;1.10;;;28.00;56.70;;;;;;5079093;28;20035;-63
2023/08/16 02:38:28;;;;;;;2.00;1.40;;;27.90;57.20;;;;;;5077671;28;20020;-63
2023/08/16 02:40:54;;;;;;;1.38;1.17;;;27.90;56.70;;;;;;5079094;28;20109;-63
2023/08/16 02:43:20;;;;;;;1.60;1.30;;;27.90;56.70;;;;;;5077807;28;20058;-63
2023/08/16 02:45:46;;;;;;;1.30;1.10;;;27.90;56.70;;;;;;5079593;28;20052;-63
2023/08/16 02:48:11;;;;;;;1.67;1.30;;;27.90;56.70;;;;;;5077917;28;20031;-63
2023/08/16 02:50:37;;;;;;;1.80;1.40;;;27.90;56.70;;;;;;5079136;28;20033;-63
2023/08/16 02:53:03;;;;;;;1.67;1.30;;;27.90;56.70;;;;;;5076364;28;20039;-63
2023/08/16 02:55:29;;;;;;;1.50;1.10;;;27.90;56.70;;;;;;5080520;28;20024;-63
2023/08/16 02:57:55;;;;;;;1.17;1.00;;;27.90;56.70;;;;;;5077798;28;20028;-64
2023/08/16 03:00:21;;;;;;;1.67;1.30;;;27.90;56.70;;;;;;5078581;28;20021;-64
2023/08/16 03:02:47;;;;;;;1.67;1.33;;;27.90;57.20;;;;;;5080060;28;20028;-63
2023/08/16 03:05:12;;;;;;;1.50;1.08;;;27.90;56.70;;;;;;5080120;28;20337;-60
2023/08/16 03:07:39;;;;;;;1.70;1.30;;;27.90;56.70;;;;;;5076786;28;20036;-60
2023/08/16 03:10:05;;;;;;;1.67;1.25;;;27.90;56.70;;;;;;5076342;28;20028;-61
2023/08/16 03:12:31;;;;;;;1.50;1.20;;;27.90;56.70;;;;;;5078844;28;20480;-60
2023/08/16 03:14:57;;;;;;;1.52;1.25;;;27.90;56.70;;;;;;5080477;28;20021;-61
2023/08/16 03:17:23;;;;;;;1.83;1.40;;;27.90;56.70;;;;;;5079120;28;20020;-60
2023/08/16 03:19:49;;;;;;;1.65;1.33;;;27.90;56.70;;;;;;5076276;28;20017;-62
2023/08/16 03:22:14;;;;;;;1.80;1.30;;;27.80;56.70;;;;;;5077166;28;20455;-62
2023/08/16 03:24:40;;;;;;;1.30;1.10;;;27.90;56.70;;;;;;5076818;28;20028;-60
2023/08/16 03:27:06;;;;;;;1.33;1.13;;;27.90;56.80;;;;;;5076809;28;20480;-67
2023/08/16 03:29:31;;;;;;;1.73;1.20;;;27.90;56.70;;;;;;5077559;28;20059;-67
2023/08/16 03:31:57;;;;;;;2.15;1.35;;;27.80;56.70;;;;;;5077658;28;20021;-67
2023/08/16 03:34:24;;;;;;;1.90;1.40;;;27.90;56.70;;;;;;5076094;28;20559;-67
2023/08/16 03:36:49;;;;;;;1.55;1.27;;;27.80;56.70;;;;;;5078918;28;20071;-68
2023/08/16 03:39:15;;;;;;;1.85;1.30;;;27.80;56.60;;;;;;5074750;28;20047;-68
2023/08/16 03:41:40;;;;;;;1.60;1.30;;;27.80;56.70;;;;;;5075658;28;20115;-68
2023/08/16 03:44:06;;;;;;;1.60;1.10;;;27.80;56.60;;;;;;5076858;28;20037;-67
2023/08/16 03:46:35;;;;;;;1.40;1.30;;;27.80;56.70;;;;;;5075849;28;20032;-67
2023/08/16 03:49:01;;;;;;;1.40;1.20;;;27.80;56.60;;;;;;5078947;28;20036;-68
2023/08/16 03:51:26;;;;;;;1.80;1.40;;;27.80;56.70;;;;;;5075343;28;20101;-68
2023/08/16 03:53:52;;;;;;;1.90;1.40;;;27.80;56.60;;;;;;5077632;28;20028;-67
2023/08/16 03:56:18;;;;;;;1.98;1.20;;;27.80;56.60;;;;;;5081944;28;20103;-68
2023/08/16 03:58:44;;;;;;;1.70;1.20;;;27.80;56.70;;;;;;5081703;28;20353;-69
2023/08/16 04:01:09;;;;;;;2.05;1.58;;;27.80;56.70;;;;;;5081392;28;20034;-68
2023/08/16 04:03:35;;;;;;;3.40;2.22;;;27.80;56.60;;;;;;5080448;28;20052;-68
2023/08/16 04:06:01;;;;;;;3.60;2.35;;;27.80;56.20;;;;;;5080727;28;20062;-69
2023/08/16 04:08:26;;;;;;;3.08;2.50;;;27.80;55.80;;;;;;5079033;28;20368;-69
2023/08/16 04:10:52;;;;;;;4.18;2.80;;;27.80;55.30;;;;;;5081492;28;20028;-69
2023/08/16 04:13:17;;;;;;;3.58;2.60;;;27.80;55.00;;;;;;5081201;28;20060;-70
2023/08/16 04:15:43;;;;;;;3.72;2.20;;;27.80;54.80;;;;;;5082218;28;20078;-63
2023/08/16 04:18:09;;;;;;;3.63;2.42;;;27.70;54.40;;;;;;5080738;28;20484;-61
2023/08/16 04:20:34;;;;;;;2.95;2.45;;;27.70;54.30;;;;;;5081480;28;20035;-63
2023/08/16 04:23:00;;;;;;;4.00;2.55;;;27.70;54.10;;;;;;5078591;28;20063;-61
2023/08/16 04:25:26;;;;;;;3.83;2.70;;;27.60;53.90;;;;;;5082186;28;20025;-61
2023/08/16 04:27:51;;;;;;;4.38;2.42;;;27.60;53.70;;;;;;5082225;28;20036;-62
2023/08/16 04:30:17;;;;;;;4.40;2.90;;;27.60;53.60;;;;;;5080281;28;20020;-61
2023/08/16 04:32:43;;;;;;;4.18;2.55;;;27.60;53.50;;;;;;5080348;28;20016;-62
2023/08/16 04:35:09;;;;;;;4.68;2.60;;;27.60;53.50;;;;;;5078335;28;20433;-65
2023/08/16 04:37:35;;;;;;;3.67;2.60;;;27.50;53.40;;;;;;5079991;28;20216;-63
2023/08/16 04:40:00;;;;;;;3.83;2.58;;;27.50;53.40;;;;;;5081337;28;20144;-62
2023/08/16 04:42:26;;;;;;;4.10;2.70;;;27.50;53.40;;;;;;5080917;28;20043;-62
2023/08/16 04:44:52;;;;;;;3.40;2.17;;;27.50;53.40;;;;;;5080541;28;20131;-62
2023/08/16 04:47:17;;;;;;;3.85;2.40;;;27.50;53.50;;;;;;5080571;28;20197;-62
2023/08/16 04:49:43;;;;;;;3.53;2.60;;;27.40;53.40;;;;;;5082280;28;20225;-62
2023/08/16 04:52:09;;;;;;;3.05;2.42;;;27.40;53.40;;;;;;5082218;28;20044;-62
2023/08/16 04:54:34;;;;;;;3.45;2.50;;;27.40;53.50;;;;;;5081148;28;20032;-63
2023/08/16 04:57:00;;;;;;;3.97;2.55;;;27.40;53.50;;;;;;5078982;28;20043;-62
2023/08/16 04:59:26;;;;;;;3.10;2.67;;;27.30;53.60;;;;;;5080668;28;20017;-62
2023/08/16 05:01:51;;;;;;;3.88;2.42;;;27.30;53.80;;;;;;5079619;28;20039;-62
2023/08/16 05:04:17;;;;;;;4.93;2.85;;;27.30;54.00;;;;;;5080348;28;20480;-62
2023/08/16 05:06:43;;;;;;;3.15;2.45;;;27.30;54.10;;;;;;5077871;28;20099;-63
2023/08/16 05:09:08;;;;;;;3.72;2.67;;;27.20;54.20;;;;;;5077984;28;20462;-63
2023/08/16 05:11:35;;;;;;;3.80;2.67;;;27.30;54.60;;;;;;5079770;28;20024;-63
2023/08/16 05:14:00;;;;;;;3.60;2.70;;;27.20;54.70;;;;;;5081220;28;20024;-62
2023/08/16 05:16:26;;;;;;;3.78;2.80;;;27.20;55.00;;;;;;5080014;28;20078;-69
2023/08/16 05:18:54;;;;;;;3.80;2.65;;;27.10;55.00;;;;;;5079793;28;20028;-69
2023/08/16 05:21:20;;;;;;;4.37;3.20;;;27.10;55.30;;;;;;5079586;28;20028;-69
2023/08/16 05:23:46;;;;;;;3.53;2.60;;;27.10;55.30;;;;;;5078589;28;20127;-69
2023/08/16 05:26:11;;;;;;;3.28;2.75;;;27.10;55.50;;;;;;5079080;28;20032;-68
2023/08/16 05:28:37;;;;;;;3.67;2.78;;;27.00;55.60;;;;;;5080182;28;20029;-68
2023/08/16 05:31:09;;;;;;;3.60;2.53;;;27.10;55.80;;;;;;5078027;28;20024;-69
2023/08/16 05:33:36;;;;;;;3.92;2.70;;;27.00;55.80;;;;;;5079970;28;20114;-70
2023/08/16 05:36:02;;;;;;;3.80;2.35;;;27.00;55.90;;;;;;5078327;28;20040;-69
2023/08/16 05:38:28;;;;;;;3.67;2.70;;;27.00;56.00;;;;;;5079245;28;20016;-69
2023/08/16 05:40:54;;;;;;;3.60;2.40;;;27.00;56.10;;;;;;5079067;28;20023;-69
2023/08/16 05:43:20;;;;;;;3.55;2.40;;;27.00;56.00;;;;;;5080815;28;20039;-69
2023/08/16 05:45:46;;;;;;;3.72;2.25;;;27.00;56.10;;;;;;5079694;28;20020;-70
2023/08/16 05:48:11;;;;;;;3.20;2.20;;;27.00;56.20;;;;;;5079009;28;20063;-70
2023/08/16 05:50:37;;;;;;;4.13;2.58;;;27.00;56.10;;;;;;5078694;28;20032;-70
2023/08/16 05:53:03;;;;;;;4.22;2.38;;;27.00;56.10;;;;;;5080390;28;20083;-70
2023/08/16 05:55:29;;;;;;;3.13;2.40;;;27.00;56.10;;;;;;5076876;28;20029;-70
2023/08/16 05:57:55;;;;;;;3.53;2.50;;;27.00;56.10;;;;;;5079973;28;20024;-69
2023/08/16 06:00:21;;;;;;;3.47;2.22;;;27.00;56.10;;;;;;5081245;28;20139;-69
2023/08/16 06:02:47;;;;;;;4.10;2.80;;;27.00;56.10;;;;;;5078337;28;20077;-69
2023/08/16 06:05:12;;;;;;;3.97;2.60;;;26.90;56.00;;;;;;5077796;28;20027;-70
2023/08/16 06:07:38;;;;;;;3.15;2.40;;;26.90;56.10;;;;;;5079008;28;20028;-68
2023/08/16 06:10:05;;;;;;;3.70;2.50;;;26.90;56.10;;;;;;5076519;28;20029;-70
2023/08/16 06:12:30;;;;;;;3.13;2.42;;;27.00;56.10;;;;;;5079733;28;20491;-70
2023/08/16 06:14:56;;;;;;;3.40;2.58;;;26.90;56.10;;;;;;5080169;28;20062;-70
2023/08/16 06:17:22;;;;;;;3.42;2.47;;;27.00;56.20;;;;;;5076641;28;20056;-69
2023/08/16 06:19:47;;;;;;;4.10;2.80;;;27.00;56.20;;;;;;5078725;28;20020;-70
2023/08/16 06:22:13;;;;;;;2.88;2.42;;;26.90;56.10;;;;;;5077313;28;20530;-70
2023/08/16 06:24:39;;;;;;;3.22;2.30;;;26.90;56.20;;;;;;5077314;28;20701;-70
2023/08/16 06:27:05;;;;;;;3.95;2.50;;;26.90;56.10;;;;;;5075521;28;20050;-69
2023/08/16 06:29:31;;;;;;;3.20;2.20;;;27.00;56.20;;;;;;5077329;28;20462;-69
2023/08/16 06:31:59;;;;;;;4.07;2.50;;;26.90;56.20;;;;;;5059962;28;20120;-69
2023/08/16 06:34:24;;;;;;;4.47;2.30;;;26.90;56.20;;;;;;5081229;28;20027;-69
2023/08/16 06:36:50;;;;;;;3.30;2.35;;;26.90;56.20;;;;;;5077960;28;20028;-61
2023/08/16 06:39:17;;;;;;;3.38;2.50;;;26.90;56.20;;;;;;5078132;28;20028;-61
2023/08/16 06:41:42;;;;;;;4.15;2.65;;;27.00;56.30;;;;;;5077709;28;20102;-61
2023/08/16 06:44:08;;;;;;;3.65;2.40;;;26.90;56.30;;;;;;5079184;28;20130;-61
2023/08/16 06:46:34;;;;;;;3.35;2.40;;;26.90;56.40;;;;;;5080117;28;20074;-61
2023/08/16 06:49:00;;;;;;;2.90;2.38;;;26.90;56.30;;;;;;5079576;28;20364;-62
2023/08/16 06:51:26;;;;;;;2.85;2.22;;;26.90;56.30;;;;;;5074915;28;20021;-61
2023/08/16 06:53:51;;;;;;;3.50;2.65;;;27.00;56.40;;;;;;5077321;28;20028;-61
2023/08/16 06:56:17;;;;;;;3.10;2.35;;;26.90;56.30;;;;;;5076073;28;20042;-62
2023/08/16 06:58:43;;;;;;;2.72;2.30;;;27.00;56.40;;;;;;5077604;28;20026;-62
2023/08/16 07:01:09;;;;;;;3.97;2.70;;;26.90;56.30;;;;;;5076815;28;20025;-63
2023/08/16 07:03:39;;;;;;;3.67;2.30;;;26.90;56.30;;;;;;5077255;28;20510;-62
2023/08/16 07:06:05;;;;;;;2.70;2.25;;;26.90;56.30;;;;;;5078605;28;20025;-64
2023/08/16 07:08:31;;;;;;;3.20;2.50;;;26.90;56.30;;;;;;5078020;28;20491;-63
2023/08/16 07:10:56;;;;;;;3.33;2.30;;;27.00;56.40;;;;;;5076028;28;20365;-63
2023/08/16 07:13:22;;;;;;;3.20;2.50;;;26.90;56.30;;;;;;5078732;28;20037;-63
2023/08/16 07:15:48;;;;;;;3.53;2.40;;;26.90;56.30;;;;;;5076273;28;20115;-62
2023/08/16 07:18:13;;;;;;;3.42;2.58;;;26.90;56.30;;;;;;5077828;28;20020;-62
2023/08/16 07:20:39;;;;;;;2.78;2.13;;;27.00;56.40;;;;;;5078011;28;20036;-64
2023/08/16 07:23:06;;;;;;;2.70;2.17;;;27.00;56.40;;;;;;5059497;28;20024;-62
2023/08/16 07:25:32;;;;;;;3.13;2.20;;;26.90;56.40;;;;;;5073981;28;20036;-63
2023/08/16 07:27:57;;;;;;;2.97;2.33;;;26.90;56.40;;;;;;5077480;28;20108;-63
2023/08/16 07:30:23;;;;;;;3.30;2.20;;;27.00;56.50;;;;;;5080060;28;20431;-63
2023/08/16 07:32:49;;;;;;;2.70;2.10;;;26.90;56.40;;;;;;5082468;28;20456;-63
2023/08/16 07:35:15;;;;;;;2.85;2.20;;;26.90;56.40;;;;;;5081530;28;20890;-63
2023/08/16 07:37:41;;;;;;;2.83;2.17;;;27.00;56.50;;;;;;5082660;28;20582;-61
2023/08/16 07:40:07;;;;;;;2.97;2.15;;;26.90;56.40;;;;;;5080161;28;20032;-63
2023/08/16 07:42:33;;;;;;;2.47;2.17;;;27.00;56.50;;;;;;5081647;28;20043;-62
2023/08/16 07:45:00;;;;;;;2.75;1.95;;;27.00;56.50;;;;;;5081724;28;20032;-61
2023/08/16 07:47:27;;;;;;;3.15;2.30;;;27.00;56.50;;;;;;5081095;28;20504;-69
2023/08/16 07:49:54;;;;;;;2.53;2.00;;;26.90;56.50;;;;;;5082511;28;20028;-70
2023/08/16 07:52:20;;;;;;;2.70;2.10;;;26.90;56.50;;;;;;5080166;28;20039;-70
2023/08/16 07:54:46;;;;;;;2.60;2.03;;;27.00;56.60;;;;;;5081974;28;20495;-70
2023/08/16 07:57:11;;;;;;;2.80;1.95;;;27.00;56.50;;;;;;5081015;28;20699;-70
2023/08/16 07:59:38;;;;;;;2.67;2.10;;;27.00;56.50;;;;;;5081639;28;20040;-70
2023/08/16 08:02:05;;;;;;;2.60;2.10;;;26.90;56.50;;;;;;5065678;28;20024;-71
2023/08/16 08:04:32;;;;;;;3.58;2.10;;;26.90;56.50;;;;;;5081386;28;20024;-70
2023/08/16 08:06:58;;;;;;;2.60;2.10;;;26.90;56.50;;;;;;5082307;28;20478;-63
2023/08/16 08:09:24;;;;;;;3.53;2.00;;;26.90;56.50;;;;;;5080484;28;20021;-62
2023/08/16 08:11:49;;;;;;;2.28;1.90;;;26.90;56.50;;;;;;5078383;28;20035;-61
2023/08/16 08:14:15;;;;;;;2.40;1.90;;;26.90;56.50;;;;;;5081643;28;20566;-62
2023/08/16 08:16:41;;;;;;;2.72;2.03;;;27.00;56.60;;;;;;5080559;28;20043;-61
2023/08/16 08:19:06;;;;;;;2.55;1.98;;;26.90;56.50;;;;;;5079724;28;20412;-62
2023/08/16 08:21:32;;;;;;;3.40;2.30;;;27.00;56.60;;;;;;5079056;28;20154;-62
2023/08/16 08:23:57;;;;;;;2.88;1.90;;;27.00;56.60;;;;;;5079747;28;20024;-63
2023/08/16 08:26:25;;;;;;;2.33;1.98;;;27.00;56.60;;;;;;5080770;28;20020;-63
2023/08/16 08:28:51;;;;;;;2.42;1.90;;;27.00;56.60;;;;;;5082738;28;20028;-62
2023/08/16 08:31:17;;;;;;;2.65;2.08;;;26.90;56.60;;;;;;5080339;28;20135;-61
2023/08/16 08:33:45;;;;;;;3.25;1.85;;;27.00;56.60;;;;;;5080215;28;20371;-61
2023/08/16 08:36:11;;;;;;;2.50;2.10;;;26.90;56.60;;;;;;5079915;28;20017;-64
2023/08/16 08:38:37;;;;;;;2.53;1.90;;;27.00;56.70;;;;;;5080267;28;20024;-62
2023/08/16 08:41:03;;;;;;;2.72;2.00;;;27.00;56.70;;;;;;5077938;28;20630;-61
2023/08/16 08:43:39;;;;;;;2.42;1.90;;;26.90;56.60;;;;;;5079440;28;20035;-62
2023/08/16 08:46:05;;;;;;;2.40;1.90;;;27.00;57.20;;;;;;5082376;28;20028;-62
2023/08/16 08:48:32;;;;;;;2.55;1.90;;;26.90;56.60;;;;;;5080161;28;20095;-63
2023/08/16 08:50:58;;;;;;;2.50;2.00;;;27.00;56.70;;;;;;5078156;28;20561;-62
2023/08/16 08:53:26;;;;;;;2.60;1.80;;;27.00;56.70;;;;;;5079691;28;20028;-61
2023/08/16 08:55:56;;;;;;;3.20;2.10;;;27.00;56.70;;;;;;5079046;28;20032;-62
2023/08/16 08:58:23;;;;;;;2.80;2.00;;;27.00;56.70;;;;;;5078754;28;20418;-71
2023/08/16 09:00:49;;;;;;;2.58;2.00;;;27.00;56.70;;;;;;5080144;28;20028;-71
2023/08/16 09:03:22;;;;;;;2.38;1.90;;;27.00;56.70;;;;;;5079523;28;20029;-71
2023/08/16 09:05:53;;;;;;;2.20;1.77;;;27.00;56.80;;;;;;5080468;28;20035;-71
2023/08/16 09:08:22;;;;;;;3.50;1.85;;;27.00;56.70;;;;;;5079511;28;20134;-71
2023/08/16 09:10:48;;;;;;;;;;;27.00;56.70;;;;;;5076846;28;20036;-71
2023/08/16 09:13:15;;;;;;;2.70;1.90;;;27.00;56.80;;;;;;5079009;28;19911;-71
2023/08/16 09:15:40;;;;;;;3.08;1.80;;;27.00;56.80;;;;;;5083189;28;20036;-70
2023/08/16 09:18:14;;;;;;;2.80;1.88;;;27.00;56.70;;;;;;5079027;28;20384;-62
2023/08/16 09:20:44;;;;;;;2.35;1.80;;;27.00;56.80;;;;;;5080600;28;20020;-62
2023/08/16 09:23:13;;;;;;;2.45;2.03;;;27.00;57.30;;;;;;5080987;28;20035;-63
2023/08/16 09:25:40;;;;;;;2.95;1.90;;;27.00;56.80;;;;;;5078491;28;20383;-63
2023/08/16 09:28:09;;;;;;;2.25;1.70;;;27.00;56.80;;;;;;5077956;28;20047;-61
2023/08/16 09:30:34;;;;;;;;;;;27.00;56.80;;;;;;5081423;28;20468;-61
2023/08/16 09:33:00;;;;;;;2.30;1.75;;;27.00;56.80;;;;;;5079351;28;19968;-63
2023/08/16 09:35:30;;;;;;;2.53;1.75;;;27.00;56.80;;;;;;5081801;28;20028;-62
2023/08/16 09:37:59;;;;;;;2.53;1.92;;;27.00;56.80;;;;;;5079092;28;20080;-62
2023/08/16 09:40:25;;;;;;;2.55;1.90;;;27.00;56.80;;;;;;5081314;28;20024;-62
2023/08/16 09:42:52;;;;;;;2.40;1.73;;;27.00;56.80;;;;;;5078441;28;20043;-64
2023/08/16 09:45:34;;;;;;;2.28;1.80;;;27.00;57.30;;;;;;5079292;28;20445;-61
2023/08/16 09:48:01;;;;;;;3.10;1.85;;;27.00;56.80;;;;;;5079999;28;20511;-62
2023/08/16 09:50:35;;;;;;;1.98;1.50;;;27.00;56.80;;;;;;5080055;28;20098;-64
2023/08/16 09:53:04;;;;;;;2.63;1.98;;;27.00;56.80;;;;;;5080532;28;20471;-62
2023/08/16 09:55:34;;;;;;;2.47;1.75;;;27.00;56.80;;;;;;5078814;28;20487;-62
2023/08/16 09:58:00;;;;;;;2.10;1.75;;;27.00;56.80;;;;;;5077667;28;20052;-63
2023/08/16 10:00:28;;;;;;;2.33;1.80;;;27.00;56.80;;;;;;5079521;28;20024;-63
2023/08/16 10:02:54;;;;;;;3.45;2.00;;;27.10;57.40;;;;;;5080198;28;20032;-63
2023/08/16 10:05:20;;;;;;;2.65;1.73;;;27.10;56.80;;;;;;5080405;28;20031;-62
2023/08/16 10:07:47;;;;;;;2.35;1.85;;;27.10;56.80;;;;;;5078639;28;20480;-64
2023/08/16 10:10:14;;;;;;;2.38;1.83;;;27.10;56.80;;;;;;5080772;28;20040;-62
2023/08/16 10:12:40;;;;;;;2.28;1.70;;;27.10;56.80;;;;;;5077715;28;20454;-63
2023/08/16 10:15:06;;;;;;;2.25;1.70;;;27.10;56.80;;;;;;5078555;28;20120;-62
2023/08/16 10:17:43;;;;;;;2.10;1.60;;;27.10;56.80;;;;;;5079559;28;20023;-63
2023/08/16 10:20:17;;;;;;;2.38;1.80;;;27.10;56.80;;;;;;5079429;28;20029;-63
2023/08/16 10:22:45;;;;;;;1.92;1.58;;;27.10;56.80;;;;;;5079264;28;20108;-62
2023/08/16 10:25:16;;;;;;;2.33;1.70;;;27.10;56.80;;;;;;5076958;28;20024;-64
2023/08/16 10:27:44;;;;;;;2.50;1.80;;;27.10;56.80;;;;;;5078126;28;20093;-61
2023/08/16 10:30:19;;;;;;;2.50;1.90;;;27.10;56.80;;;;;;5079746;28;20391;-61
2023/08/16 10:32:46;;;;;;;2.70;1.90;;;27.10;56.80;;;;;;5076925;28;20534;-64
2023/08/16 10:35:13;;;;;;;2.50;1.90;;;27.10;56.80;;;;;;5080397;28;20016;-64
2023/08/16 10:37:39;;;;;;;2.28;1.70;;;27.10;56.80;;;;;;5078238;28;20497;-63
2023/08/16 10:40:16;;;;;;;2.00;1.60;;;27.10;56.80;;;;;;5078303;28;20048;-63
2023/08/16 10:42:53;;;;;;;2.22;1.60;;;27.10;56.80;;;;;;5078337;28;20328;-62
2023/08/16 10:45:33;;;;;;;2.22;1.70;;;27.10;56.80;;;;;;5078600;28;20024;-62
2023/08/16 10:48:11;;;;;;;2.50;1.70;;;27.10;56.70;;;;;;5078226;28;20032;-61
2023/08/16 10:50:37;;;;;;;2.70;1.63;;;27.10;56.80;;;;;;5078856;28;20111;-61
2023/08/16 10:53:07;;;;;;;2.30;1.67;;;27.10;56.80;;;;;;5076487;28;20111;-61
2023/08/16 10:55:33;;;;;;;2.60;1.90;;;27.10;56.80;;;;;;5079058;28;20044;-62
2023/08/16 10:57:59;;;;;;;1.98;1.50;;;27.10;56.70;;;;;;5062010;28;20047;-62
2023/08/16 11:00:33;;;;;;;2.35;1.70;;;27.20;56.80;;;;;;5078030;28;20103;-63
2023/08/16 11:03:04;;;;;;;2.20;1.70;;;27.20;56.80;;;;;;5076547;28;20052;-62
2023/08/16 11:05:33;;;;;;;2.25;1.70;;;27.10;56.70;;;;;;5079093;28;20163;-63
2023/08/16 11:08:01;;;;;;;2.00;1.63;;;27.20;56.80;;;;;;5080248;28;20469;-63
2023/08/16 11:10:37;;;;;;;2.08;1.70;;;27.20;56.80;;;;;;5078546;28;20078;-63
2023/08/16 11:13:09;;;;;;;2.25;1.65;;;27.20;56.80;;;;;;5076716;28;20041;-65
2023/08/16 11:15:35;;;;;;;2.45;1.80;;;27.20;56.80;;;;;;5074903;28;20394;-63
2023/08/16 11:18:01;;;;;;;2.47;1.73;;;27.20;56.80;;;;;;5076720;28;20020;-62
2023/08/16 11:20:29;;;;;;;2.38;1.70;;;27.20;56.70;;;;;;5076555;28;20034;-62
2023/08/16 11:22:57;;;;;;;2.33;1.80;;;27.20;56.70;;;;;;5075917;28;20040;-62
2023/08/16 11:25:23;;;;;;;3.00;2.20;;;27.20;56.80;;;;;;5077514;28;20413;-64
2023/08/16 11:27:50;;;;;;;2.45;1.73;;;27.20;56.70;;;;;;5077868;28;20055;-63
2023/08/16 11:30:16;;;;;;;2.00;1.60;;;27.20;56.70;;;;;;5079237;28;20020;-62
2023/08/16 11:32:41;;;;;;;2.50;1.70;;;27.20;56.70;;;;;;5077750;28;20033;-62
2023/08/16 11:35:09;;;;;;;2.67;1.77;;;27.20;56.70;;;;;;5078041;28;20025;-62
2023/08/16 11:37:36;;;;;;;2.15;1.52;;;27.20;56.70;;;;;;5077398;28;20020;-71
2023/08/16 11:40:10;;;;;;;2.40;1.63;;;27.20;56.70;;;;;;5079710;28;20028;-68
2023/08/16 11:42:36;;;;;;;2.22;1.80;;;27.20;56.80;;;;;;5059864;28;20078;-70
2023/08/16 11:45:14;;;;;;;2.28;1.60;;;27.20;56.80;;;;;;5081427;28;20035;-71
2023/08/16 11:47:39;;;;;;;2.40;1.80;;;27.20;56.80;;;;;;5078331;28;20027;-72
2023/08/16 11:50:09;;;;;;;2.33;1.80;;;27.20;56.70;;;;;;5078082;28;20024;-70
2023/08/16 11:52:35;;;;;;;2.75;1.80;;;27.20;56.80;;;;;;5080781;28;20116;-71
2023/08/16 11:55:01;;;;;;;2.33;1.90;;;27.20;56.80;;;;;;5077813;28;20115;-70
2023/08/16 11:57:27;;;;;;;2.60;1.90;;;27.30;56.80;;;;;;5076936;28;20024;-71
2023/08/16 11:59:55;;;;;;;2.10;1.70;;;27.20;56.80;;;;;;5077672;28;20025;-70
2023/08/16 12:02:24;;;;;;;2.22;1.80;;;27.30;56.80;;;;;;5078444;28;20032;-70
2023/08/16 12:04:51;;;;;;;2.30;1.80;;;27.30;56.80;;;;;;5059859;28;20074;-70
2023/08/16 12:07:17;;;;;;;2.70;2.17;;;27.20;56.70;;;;;;5079419;28;20036;-70
2023/08/16 12:09:42;;;;;;;2.05;1.60;;;27.20;56.80;;;;;;5076234;28;20537;-71
2023/08/16 12:12:10;;;;;;;2.40;1.85;;;27.30;56.90;;;;;;5077971;28;20136;-70
2023/08/16 12:14:36;;;;;;;2.00;1.73;;;27.20;56.80;;;;;;5077364;28;20466;-69
2023/08/16 12:17:02;;;;;;;2.40;1.80;;;27.20;56.80;;;;;;5081145;28;20491;-69
2023/08/16 12:19:28;;;;;;;2.28;1.85;;;27.30;56.90;;;;;;5080396;28;20028;-69
2023/08/16 12:21:53;;;;;;;2.45;1.90;;;27.30;56.90;;;;;;5078539;28;20510;-68
2023/08/16 12:24:19;;;;;;;2.17;1.70;;;27.30;56.80;;;;;;5079830;28;20545;-69
2023/08/16 12:26:45;;;;;;;2.17;1.70;;;27.30;56.80;;;;;;5080978;28;20028;-69
2023/08/16 12:29:11;;;;;;;2.20;1.80;;;27.30;56.90;;;;;;5079490;28;20507;-68
2023/08/16 12:31:38;;;;;;;2.33;1.83;;;27.30;56.80;;;;;;5080205;28;20063;-68
2023/08/16 12:34:08;;;;;;;2.45;1.85;;;27.30;56.90;;;;;;5080937;28;20028;-68
2023/08/16 12:36:33;;;;;;;2.92;1.90;;;27.30;56.90;;;;;;5081375;28;20447;-69
2023/08/16 12:38:59;;;;;;;2.45;2.05;;;27.30;56.90;;;;;;5080255;28;20055;-69
2023/08/16 12:41:25;;;;;;;2.50;1.75;;;27.30;56.80;;;;;;5080563;28;20116;-69
2023/08/16 12:43:51;;;;;;;2.78;2.03;;;27.30;56.80;;;;;;5078892;28;20107;-69
2023/08/16 12:46:17;;;;;;;2.53;1.83;;;27.30;56.80;;;;;;5081280;28;20165;-63